createdAt,value
2022-10-22T00:01:46.384Z,90432.06
2022-10-22T00:04:13.123Z,90424.50
2022-10-22T00:06:39.919Z,90420.19
2022-10-22T00:09:06.672Z,90411.13
2022-10-22T00:11:33.487Z,90415.44
2022-10-22T00:14:00.315Z,90414.91
2022-10-22T00:16:27.020Z,90407.22
2022-10-22T00:18:53.774Z,90409.25
2022-10-22T00:21:20.597Z,90406.47
2022-10-22T00:23:47.341Z,90400.88
2022-10-22T00:26:14.193Z,90409.09
2022-10-22T00:28:41.244Z,90416.81
2022-10-22T00:31:08.276Z,90418.50
2022-10-22T00:33:35.052Z,90401.47
2022-10-22T00:36:01.989Z,90407.97
2022-10-22T00:38:28.804Z,90416.19
2022-10-22T00:40:56.214Z,90418.41
2022-10-22T00:43:23.044Z,90401.47
2022-10-22T00:45:49.763Z,90422.50
2022-10-22T00:48:24.472Z,90406.00
2022-10-22T00:50:55.736Z,90413.28
2022-10-22T00:53:49.409Z,90410.84
2022-10-22T00:56:16.684Z,90410.84
2022-10-22T00:58:47.488Z,90396.75
2022-10-22T01:01:18.829Z,90390.06
2022-10-22T01:03:45.839Z,90394.50
2022-10-22T01:06:19.136Z,90384.06
2022-10-22T01:09:02.744Z,90380.53
2022-10-22T01:11:51.213Z,90383.84
2022-10-22T01:14:45.609Z,90384.44
2022-10-22T01:17:32.158Z,90384.53
2022-10-22T01:20:26.710Z,90392.34
2022-10-22T01:23:13.278Z,90388.22
2022-10-22T01:26:06.213Z,90390.53
2022-10-22T01:28:59.831Z,90392.28
2022-10-22T01:31:32.429Z,90400.59
2022-10-22T01:34:00.561Z,90386.75
2022-10-22T01:36:33.251Z,90392.50
2022-10-22T01:39:01.905Z,90389.88
2022-10-22T01:41:29.803Z,90385.59
2022-10-22T01:43:56.743Z,90389.38
2022-10-22T01:46:27.172Z,90378.22
2022-10-22T01:49:11.804Z,90388.22
2022-10-22T01:52:11.982Z,90388.34
2022-10-22T01:55:19.725Z,90396.22
2022-10-22T01:57:54.120Z,90397.63
2022-10-22T02:00:21.572Z,90400.53
2022-10-22T02:02:58.521Z,90384.06
2022-10-22T02:05:32.450Z,90395.00
2022-10-22T02:08:25.019Z,90398.59
2022-10-22T02:10:53.745Z,90391.22
2022-10-22T02:13:26.748Z,90382.13
2022-10-22T02:15:56.190Z,90386.38
2022-10-22T02:18:28.152Z,90393.56
2022-10-22T02:20:55.183Z,90407.94
2022-10-22T02:23:22.324Z,90398.56
2022-10-22T02:25:56.047Z,90408.38
2022-10-22T02:28:29.307Z,90409.09
2022-10-22T02:31:06.741Z,90401.56
2022-10-22T02:33:40.246Z,90413.47
2022-10-22T02:36:08.383Z,90412.06
2022-10-22T02:38:36.486Z,90420.22
2022-10-22T02:41:04.246Z,90409.44
2022-10-22T02:43:31.076Z,90395.53
2022-10-22T02:45:58.008Z,90417.09
2022-10-22T02:48:24.781Z,90420.28
2022-10-22T02:50:51.571Z,90419.03
2022-10-22T02:53:18.329Z,90425.09
2022-10-22T02:55:45.042Z,90416.91
2022-10-22T02:58:11.907Z,90427.72
2022-10-22T03:00:38.671Z,90428.47
2022-10-22T03:03:05.587Z,90415.75
2022-10-22T03:05:32.644Z,90427.44
2022-10-22T03:07:59.391Z,90424.81
2022-10-22T03:10:27.257Z,90420.69
2022-10-22T03:12:54.079Z,90430.69
2022-10-22T03:15:20.885Z,90426.59
2022-10-22T03:17:47.600Z,90427.31
2022-10-22T03:20:14.591Z,90437.44
2022-10-22T03:22:43.779Z,90427.78
2022-10-22T03:25:20.961Z,90437.16
2022-10-22T03:27:48.681Z,90443.28
2022-10-22T03:30:15.437Z,90429.75
2022-10-22T03:32:42.171Z,90443.66
2022-10-22T03:35:09.164Z,90445.84
2022-10-22T03:37:37.072Z,90451.78
2022-10-22T03:40:06.562Z,90441.84
2022-10-22T03:42:33.527Z,90446.13
2022-10-22T03:45:00.232Z,90443.31
2022-10-22T03:47:27.025Z,90446.03
2022-10-22T03:49:53.853Z,90453.50
2022-10-22T03:52:20.618Z,90446.28
2022-10-22T03:54:47.440Z,90442.59
2022-10-22T03:57:14.655Z,90447.53
2022-10-22T03:59:44.754Z,90447.19
2022-10-22T04:02:14.776Z,90457.81
2022-10-22T04:04:41.689Z,90459.63
2022-10-22T04:07:09.103Z,90457.56
2022-10-22T04:09:39.647Z,90451.25
2022-10-22T04:12:06.663Z,90457.34
2022-10-22T04:14:33.502Z,90463.25
2022-10-22T04:17:00.223Z,90460.38
2022-10-22T04:19:27.052Z,90456.84
2022-10-22T04:22:00.851Z,90452.84
2022-10-22T04:24:32.016Z,90466.31
2022-10-22T04:26:59.188Z,90456.63
2022-10-22T04:29:26.170Z,90463.06
2022-10-22T04:31:53.455Z,90465.72
2022-10-22T04:34:20.345Z,90464.09
2022-10-22T04:36:49.852Z,90469.75
2022-10-22T04:39:16.660Z,90471.16
2022-10-22T04:41:43.353Z,90481.88
2022-10-22T04:44:12.474Z,90484.03
2022-10-22T04:46:43.951Z,90497.28
2022-10-22T04:49:10.802Z,90495.50
2022-10-22T04:51:40.081Z,90488.59
2022-10-22T04:54:06.912Z,90493.13
2022-10-22T04:56:33.707Z,90499.63
2022-10-22T04:59:03.187Z,90515.13
2022-10-22T05:01:33.864Z,90514.84
2022-10-22T05:04:03.064Z,90515.03
2022-10-22T05:06:31.253Z,90518.03
2022-10-22T05:09:03.797Z,90515.22
2022-10-22T05:11:35.699Z,90518.69
2022-10-22T05:14:04.825Z,90513.41
2022-10-22T05:16:33.290Z,90514.00
2022-10-22T05:19:01.902Z,90525.69
2022-10-22T05:21:29.128Z,90522.94
2022-10-22T05:23:57.324Z,90519.34
2022-10-22T05:26:24.158Z,90516.78
2022-10-22T05:28:51.851Z,90530.16
2022-10-22T05:31:19.052Z,90528.94
2022-10-22T05:33:48.365Z,90530.06
2022-10-22T05:36:24.711Z,90531.50
2022-10-22T05:38:51.402Z,90525.03
2022-10-22T05:41:21.635Z,90534.66
2022-10-22T05:43:48.724Z,90527.28
2022-10-22T05:46:22.244Z,90529.31
2022-10-22T05:48:51.859Z,90537.66
2022-10-22T05:51:19.060Z,90539.66
2022-10-22T05:53:46.538Z,90537.25
2022-10-22T05:56:15.746Z,90543.75
2022-10-22T05:58:44.511Z,90537.56
2022-10-22T06:01:26.585Z,90540.31
2022-10-22T06:03:58.518Z,90552.72
2022-10-22T06:06:38.422Z,90540.16
2022-10-22T06:12:07.767Z,90533.91
2022-10-22T06:14:34.538Z,90545.66
2022-10-22T06:17:01.274Z,90542.66
2022-10-22T06:19:28.373Z,90539.19
2022-10-22T06:21:55.141Z,90534.81
2022-10-22T06:24:21.894Z,90540.94
2022-10-22T06:26:52.091Z,90544.00
2022-10-22T06:29:18.970Z,90550.22
2022-10-22T06:31:45.868Z,90552.97
2022-10-22T06:34:14.160Z,90549.69
2022-10-22T06:39:12.672Z,90547.94
2022-10-22T06:41:39.669Z,90548.47
2022-10-22T06:44:06.454Z,90551.28
2022-10-22T06:46:33.240Z,90553.28
2022-10-22T06:49:01.911Z,90560.28
2022-10-22T06:51:30.045Z,90554.84
2022-10-22T06:53:58.158Z,90548.41
2022-10-22T06:56:27.260Z,90549.41
2022-10-22T06:58:55.887Z,90552.94
2022-10-22T07:01:25.855Z,90546.84
2022-10-22T07:03:53.396Z,90559.16
2022-10-22T07:06:21.510Z,90555.69
2022-10-22T07:08:48.912Z,90548.47
2022-10-22T07:11:24.618Z,90548.78
2022-10-22T07:13:53.676Z,90543.97
2022-10-22T07:16:20.493Z,90543.41
2022-10-22T07:18:48.264Z,90546.38
2022-10-22T07:21:17.699Z,90535.59
2022-10-22T07:23:45.116Z,90533.91
2022-10-22T07:26:14.016Z,90530.63
2022-10-22T07:28:41.219Z,90535.66
2022-10-22T07:31:10.083Z,90530.03
2022-10-22T07:33:37.995Z,90541.59
2022-10-22T07:36:08.319Z,90532.91
2022-10-22T07:38:36.188Z,90535.06
2022-10-22T07:41:03.972Z,90530.19
2022-10-22T07:43:30.765Z,90529.94
2022-10-22T07:45:57.528Z,90531.63
2022-10-22T07:48:24.783Z,90532.84
2022-10-22T07:50:52.433Z,90531.44
2022-10-22T07:53:19.220Z,90533.13
2022-10-22T07:55:51.619Z,90532.72
2022-10-22T07:58:19.586Z,90526.22
2022-10-22T08:00:46.912Z,90532.38
2022-10-22T08:03:18.345Z,90524.69
2022-10-22T08:05:48.413Z,90547.19
2022-10-22T08:08:16.818Z,90538.03
2022-10-22T08:10:44.490Z,90535.84
2022-10-22T08:13:11.773Z,90541.69
2022-10-22T08:15:39.107Z,90530.56
2022-10-22T08:18:06.456Z,90530.84
2022-10-22T08:20:33.305Z,90527.63
2022-10-22T08:23:02.890Z,90522.44
2022-10-22T08:25:30.163Z,90521.84
2022-10-22T08:27:56.946Z,90524.94
2022-10-22T08:30:23.801Z,90526.09
2022-10-22T08:32:54.133Z,90520.84
2022-10-22T08:35:21.543Z,90522.06
2022-10-22T08:37:48.377Z,90516.44
2022-10-22T08:40:37.893Z,90519.09
2022-10-22T08:43:42.171Z,90512.13
2022-10-22T08:46:30.082Z,90506.19
2022-10-22T08:49:00.907Z,90517.00
2022-10-22T08:51:33.035Z,90513.78
2022-10-22T08:54:02.571Z,90513.59
2022-10-22T08:56:31.439Z,90503.38
2022-10-22T08:59:23.173Z,90512.66
2022-10-22T09:01:54.355Z,90505.06
2022-10-22T09:04:38.815Z,90495.44
2022-10-22T09:07:05.583Z,90500.88
2022-10-22T09:09:39.804Z,90491.81
2022-10-22T09:12:20.106Z,90484.44
2022-10-22T09:14:47.530Z,90487.06
2022-10-22T09:17:21.200Z,90481.03
2022-10-22T09:20:20.027Z,90476.56
2022-10-22T09:22:58.646Z,90474.56
2022-10-22T09:25:31.552Z,90469.13
2022-10-22T09:27:58.328Z,90471.13
2022-10-22T09:30:28.696Z,90476.56
2022-10-22T09:33:20.165Z,90484.00
2022-10-22T09:36:02.782Z,90468.44
2022-10-22T09:38:33.116Z,90476.13
2022-10-22T09:41:02.109Z,90476.63
2022-10-22T09:43:29.141Z,90471.47
2022-10-22T09:46:04.928Z,90467.16
2022-10-22T09:48:37.276Z,90458.50
2022-10-22T09:51:12.426Z,90460.50
2022-10-22T09:53:44.079Z,90461.25
2022-10-22T09:56:24.142Z,90451.97
2022-10-22T09:58:51.297Z,90454.75
2022-10-22T10:01:23.000Z,90456.44
2022-10-22T10:03:50.593Z,90446.19
2022-10-22T10:06:22.241Z,90439.19
2022-10-22T10:08:49.802Z,90432.81
2022-10-22T10:11:46.027Z,90434.78
2022-10-22T10:14:12.837Z,90431.97
2022-10-22T10:17:04.826Z,90421.69
2022-10-22T10:20:00.033Z,90427.88
2022-10-22T10:22:50.834Z,90413.06
2022-10-22T10:25:27.020Z,90412.97
2022-10-22T10:28:00.158Z,90414.19
2022-10-22T10:30:27.533Z,90419.59
2022-10-22T10:33:00.276Z,90413.22
2022-10-22T10:35:51.947Z,90414.72
2022-10-22T10:38:26.050Z,90408.72
2022-10-22T10:41:04.032Z,90401.91
2022-10-22T10:43:45.595Z,90395.63
2022-10-22T10:46:21.532Z,90393.16
2022-10-22T10:49:09.631Z,90390.47
2022-10-22T10:52:19.023Z,90381.69
2022-10-22T10:55:00.349Z,90375.72
2022-10-22T10:57:42.693Z,90372.97
2022-10-22T11:00:17.371Z,90372.25
2022-10-22T11:03:21.195Z,90367.69
2022-10-22T11:06:06.571Z,90371.47
2022-10-22T11:08:42.995Z,90370.50
2022-10-22T11:11:19.925Z,90366.06
2022-10-22T11:14:11.377Z,90369.03
2022-10-22T11:16:53.755Z,90368.34
2022-10-22T11:20:05.144Z,90367.16
2022-10-22T11:22:42.090Z,90358.00
2022-10-22T11:25:16.717Z,90357.50
2022-10-22T11:28:05.467Z,90359.31
2022-10-22T11:30:37.210Z,90354.72
2022-10-22T11:33:22.167Z,90347.16
2022-10-22T11:35:50.505Z,90351.31
2022-10-22T11:38:26.082Z,90348.75
2022-10-22T11:40:57.335Z,90345.03
2022-10-22T11:43:27.095Z,90346.19
2022-10-22T11:46:09.380Z,90345.50
2022-10-22T11:48:39.938Z,90346.13
2022-10-22T11:51:34.557Z,90336.28
2022-10-22T11:54:37.884Z,90340.75
2022-10-22T11:57:21.488Z,90337.34
2022-10-22T11:59:48.180Z,90330.84
2022-10-22T12:02:44.328Z,90321.75
2022-10-22T12:05:41.412Z,90323.16
2022-10-22T12:08:15.697Z,90318.75
2022-10-22T12:10:57.382Z,90322.50
2022-10-22T12:13:32.012Z,90318.03
2022-10-22T12:16:03.911Z,90320.47
2022-10-22T12:18:45.930Z,90308.31
2022-10-22T12:21:14.613Z,90304.16
2022-10-22T12:23:42.363Z,90308.50
2022-10-22T12:26:27.431Z,90300.66
2022-10-22T12:29:01.397Z,90312.16
2022-10-22T12:31:36.379Z,90308.00
2022-10-22T12:34:03.505Z,90297.69
2022-10-22T12:36:33.122Z,90301.13
2022-10-22T12:39:01.561Z,90301.22
2022-10-22T12:41:37.123Z,90295.72
2022-10-22T12:44:05.352Z,90293.41
2022-10-22T12:46:34.605Z,90292.97
2022-10-22T12:49:04.733Z,90296.53
2022-10-22T12:54:12.227Z,90305.28
2022-10-22T12:56:41.959Z,90302.13
2022-10-22T12:59:28.222Z,90301.84
2022-10-22T13:01:55.624Z,90302.44
2022-10-22T13:04:33.753Z,90300.53
2022-10-22T13:07:03.650Z,90295.47
2022-10-22T13:09:39.802Z,90293.97
2022-10-22T13:12:08.627Z,90299.91
2022-10-22T13:14:39.323Z,90298.22
2022-10-22T13:17:17.025Z,90294.94
2022-10-22T13:20:01.810Z,90295.19
2022-10-22T13:22:33.530Z,90306.69
2022-10-22T13:25:15.522Z,90300.25
2022-10-22T13:27:55.063Z,90298.00
2022-10-22T13:30:36.257Z,90291.38
2022-10-22T13:33:22.184Z,90296.44
2022-10-22T13:35:49.684Z,90289.47
2022-10-22T13:38:26.284Z,90293.66
2022-10-22T13:40:53.094Z,90296.28
2022-10-22T13:43:20.069Z,90285.97
2022-10-22T13:45:54.692Z,90290.06
2022-10-22T13:48:24.098Z,90293.19
2022-10-22T13:50:51.755Z,90297.44
2022-10-22T13:53:22.097Z,90294.41
2022-10-22T13:55:48.934Z,90291.72
2022-10-22T14:00:52.907Z,90293.94
2022-10-22T14:03:22.771Z,90293.28
2022-10-22T14:05:50.226Z,90295.41
2022-10-22T14:08:20.512Z,90294.09
2022-10-22T14:10:47.926Z,90283.81
2022-10-22T14:13:16.392Z,90284.06
2022-10-22T14:15:45.452Z,90291.88
2022-10-22T14:18:21.867Z,90290.44
2022-10-22T14:20:48.672Z,90280.50
2022-10-22T14:23:19.790Z,90291.00
2022-10-22T14:25:47.627Z,90292.25
2022-10-22T14:28:14.718Z,90288.59
2022-10-22T14:30:42.329Z,90277.94
2022-10-22T14:33:31.497Z,90279.22
2022-10-22T14:36:02.621Z,90280.44
2022-10-22T14:38:29.804Z,90283.66
2022-10-22T14:40:57.942Z,90277.56
2022-10-22T14:43:30.314Z,90275.69
2022-10-22T14:45:57.756Z,90276.97
2022-10-22T14:48:25.152Z,90288.38
2022-10-22T14:50:52.447Z,90281.56
2022-10-22T14:53:19.539Z,90277.50
2022-10-22T14:55:47.612Z,90276.31
2022-10-22T14:58:15.261Z,90276.84
2022-10-22T15:00:43.030Z,90283.91
2022-10-22T15:03:10.602Z,90285.59
2022-10-22T15:18:15.130Z,90280.00
2022-10-22T15:20:42.250Z,90281.03
2022-10-22T15:23:09.224Z,90280.75
2022-10-22T15:25:36.301Z,90287.28
2022-10-22T15:28:09.595Z,90287.47
2022-10-22T15:30:37.020Z,90292.19
2022-10-22T15:33:04.051Z,90298.19
2022-10-22T15:35:31.013Z,90299.94
2022-10-22T15:37:58.081Z,90301.31
2022-10-22T15:40:25.088Z,90305.38
2022-10-22T15:42:52.085Z,90312.28
2022-10-22T15:45:19.339Z,90300.56
2022-10-22T15:47:48.360Z,90308.50
2022-10-22T15:50:15.643Z,90308.50
2022-10-22T15:52:42.820Z,90322.84
2022-10-22T15:55:09.925Z,90322.56
2022-10-22T15:57:38.030Z,90325.59
2022-10-22T16:02:57.207Z,90340.47
2022-10-22T16:05:24.226Z,90331.00
2022-10-22T16:07:51.192Z,90328.13
2022-10-22T16:10:18.316Z,90339.06
2022-10-22T16:12:45.310Z,90330.69
2022-10-22T16:15:13.127Z,90339.50
2022-10-22T16:17:40.213Z,90354.41
2022-10-22T16:20:07.690Z,90352.94
2022-10-22T16:22:35.057Z,90367.66
2022-10-22T16:25:02.289Z,90362.66
2022-10-22T16:27:29.322Z,90369.81
2022-10-22T16:29:56.296Z,90369.81
2022-10-22T16:32:23.288Z,90362.78
2022-10-22T16:34:50.581Z,90371.56
2022-10-22T16:37:19.978Z,90374.75
2022-10-22T16:39:48.210Z,90376.38
2022-10-22T16:42:15.273Z,90361.00
2022-10-22T16:44:51.461Z,90362.47
2022-10-22T16:47:22.063Z,90366.25
2022-10-22T16:49:52.178Z,90375.44
2022-10-22T16:52:30.435Z,90384.28
2022-10-22T16:54:57.481Z,90371.22
2022-10-22T16:57:28.013Z,90370.03
2022-10-22T16:59:55.157Z,90373.59
2022-10-22T17:02:22.306Z,90368.56
2022-10-22T17:04:49.220Z,90370.78
2022-10-22T17:07:16.376Z,90378.31
2022-10-22T17:09:43.347Z,90375.50
2022-10-22T17:12:10.412Z,90360.91
2022-10-22T17:14:40.377Z,90357.63
2022-10-22T17:17:07.396Z,90370.63
2022-10-22T17:19:34.337Z,90354.38
2022-10-22T17:22:01.536Z,90345.66
2022-10-22T17:24:28.497Z,90342.25
2022-10-22T17:26:55.568Z,90348.44
2022-10-22T17:29:22.638Z,90351.41
2022-10-22T17:31:49.652Z,90348.00
2022-10-22T17:34:17.716Z,90351.41
2022-10-22T17:36:45.364Z,90339.44
2022-10-22T17:39:16.996Z,90341.66
2022-10-22T17:41:44.076Z,90346.13
2022-10-22T17:44:12.566Z,90348.47
2022-10-22T17:46:39.705Z,90340.06
2022-10-22T17:49:12.679Z,90343.16
2022-10-22T17:51:39.522Z,90349.19
2022-10-22T17:54:09.015Z,90358.81
2022-10-22T17:56:37.188Z,90356.16
2022-10-22T17:59:04.254Z,90365.41
2022-10-22T18:01:33.988Z,90358.78
2022-10-22T18:04:14.048Z,90365.59
2022-10-22T18:06:41.200Z,90375.66
2022-10-22T18:09:12.348Z,90380.91
2022-10-22T18:11:44.374Z,90389.38
2022-10-22T18:14:14.085Z,90369.28
2022-10-22T18:16:41.020Z,90380.81
2022-10-22T18:19:08.096Z,90382.72
2022-10-22T18:21:35.226Z,90396.00
2022-10-22T18:24:02.236Z,90386.38
2022-10-22T18:26:29.318Z,90394.94
2022-10-22T18:28:58.176Z,90395.53
2022-10-22T18:31:27.500Z,90406.72
2022-10-22T18:33:55.825Z,90404.53
2022-10-22T18:36:25.874Z,90407.00
2022-10-22T18:38:57.877Z,90394.91
2022-10-22T18:41:25.527Z,90398.09
2022-10-22T18:44:03.543Z,90394.91
2022-10-22T18:46:32.217Z,90402.78
2022-10-22T18:48:59.359Z,90407.56
2022-10-22T18:51:29.676Z,90395.69
2022-10-22T18:54:05.054Z,90399.13
2022-10-22T18:56:44.814Z,90400.25
2022-10-22T18:59:21.767Z,90400.56
2022-10-22T19:01:49.236Z,90403.22
2022-10-22T19:04:16.684Z,90393.69
2022-10-22T19:06:47.206Z,90388.69
2022-10-22T19:09:15.940Z,90396.66
2022-10-22T19:11:44.905Z,90399.53
2022-10-22T19:14:14.574Z,90399.28
2022-10-22T19:16:41.666Z,90400.91
2022-10-22T19:19:11.898Z,90398.53
2022-10-22T19:21:38.902Z,90387.91
2022-10-22T19:24:11.095Z,90391.31
2022-10-22T19:26:43.247Z,90386.75
2022-10-22T19:29:12.531Z,90399.47
2022-10-22T19:31:39.838Z,90391.63
2022-10-22T19:34:06.954Z,90379.06
2022-10-22T19:36:34.221Z,90388.81
2022-10-22T19:39:02.387Z,90391.41
2022-10-22T19:41:32.618Z,90392.41
2022-10-22T19:44:01.115Z,90389.06
2022-10-22T19:46:30.427Z,90387.72
2022-10-22T19:48:57.451Z,90382.78
2022-10-22T19:51:27.979Z,90374.69
2022-10-22T19:54:00.465Z,90375.63
2022-10-22T19:56:27.643Z,90381.59
2022-10-22T19:58:55.267Z,90379.69
2022-10-22T20:01:22.373Z,90376.16
2022-10-22T20:03:49.765Z,90386.78
2022-10-22T20:06:18.508Z,90388.78
2022-10-22T20:08:46.529Z,90383.81
2022-10-22T20:11:31.900Z,90379.09
2022-10-22T20:13:59.142Z,90375.28
2022-10-22T20:16:28.156Z,90386.09
2022-10-22T20:18:55.193Z,90384.16
2022-10-22T20:21:22.274Z,90393.53
2022-10-22T20:23:53.274Z,90392.44
2022-10-22T20:26:21.530Z,90390.66
2022-10-22T20:28:48.418Z,90380.47
2022-10-22T20:31:17.789Z,90380.78
2022-10-22T20:33:44.825Z,90376.78
2022-10-22T20:36:18.338Z,90380.88
2022-10-22T20:38:46.214Z,90381.25
2022-10-22T20:41:16.325Z,90377.19
2022-10-22T20:43:48.222Z,90381.50
2022-10-22T20:46:18.937Z,90389.03
2022-10-22T20:48:46.702Z,90381.38
2022-10-22T20:51:13.986Z,90383.72
2022-10-22T20:53:41.032Z,90393.09
2022-10-22T20:56:08.456Z,90398.41
2022-10-22T20:58:36.360Z,90390.81
2022-10-22T21:01:03.923Z,90399.94
2022-10-22T21:03:31.356Z,90398.47
2022-10-22T21:05:58.369Z,90391.00
2022-10-22T21:08:25.313Z,90404.25
2022-10-22T21:10:52.360Z,90386.56
2022-10-22T21:13:19.450Z,90388.66
2022-10-22T21:15:46.302Z,90386.81
2022-10-22T21:18:13.655Z,90390.81
2022-10-22T21:20:42.518Z,90385.13
2022-10-22T21:23:09.492Z,90377.09
2022-10-22T21:25:40.657Z,90388.81
2022-10-22T21:28:10.305Z,90383.72
2022-10-22T21:30:37.454Z,90380.19
2022-10-22T21:33:04.340Z,90385.38
2022-10-22T21:35:31.557Z,90374.81
2022-10-22T21:37:58.537Z,90376.44
2022-10-22T21:40:25.467Z,90372.50
2022-10-22T21:42:52.949Z,90376.94
2022-10-22T21:45:22.320Z,90373.34
2022-10-22T21:47:49.582Z,90368.34
2022-10-22T21:50:16.698Z,90370.91
2022-10-22T21:52:43.580Z,90367.50
2022-10-22T21:55:10.858Z,90362.50
2022-10-22T21:57:38.096Z,90363.03
2022-10-22T22:00:09.234Z,90373.03
2022-10-22T22:02:36.151Z,90355.28
2022-10-22T22:05:03.528Z,90361.00
2022-10-22T22:07:30.569Z,90367.66
2022-10-22T22:09:57.502Z,90366.63
2022-10-22T22:12:24.699Z,90358.16
2022-10-22T22:14:51.513Z,90362.84
2022-10-22T22:17:18.454Z,90356.56
2022-10-22T22:19:45.490Z,90362.53
2022-10-22T22:22:12.450Z,90350.16
2022-10-22T22:24:39.516Z,90350.13
2022-10-22T22:27:06.891Z,90350.81
2022-10-22T22:29:34.512Z,90348.38
2022-10-22T22:32:01.466Z,90333.53
2022-10-22T22:34:28.492Z,90337.44
2022-10-22T22:36:55.455Z,90327.94
2022-10-22T22:39:24.231Z,90341.91
2022-10-22T22:41:51.393Z,90347.03
2022-10-22T22:44:18.429Z,90346.03
2022-10-22T22:46:45.277Z,90352.25
2022-10-22T22:49:13.146Z,90353.13
2022-10-22T22:51:40.089Z,90352.81
2022-10-22T22:54:07.073Z,90347.94
2022-10-22T22:56:34.292Z,90348.78
2022-10-22T22:59:01.582Z,90336.84
2022-10-22T23:01:33.565Z,90340.97
2022-10-22T23:04:04.839Z,90338.09
2022-10-22T23:06:35.096Z,90332.31
2022-10-22T23:09:02.916Z,90333.69
2022-10-22T23:11:29.818Z,90334.84
2022-10-22T23:13:59.696Z,90339.81
2022-10-22T23:16:29.610Z,90328.28
2022-10-22T23:18:57.198Z,90331.03
2022-10-22T23:21:31.424Z,90329.97
2022-10-22T23:24:01.845Z,90322.34
2022-10-22T23:26:35.058Z,90331.25
2022-10-22T23:29:04.859Z,90320.34
2022-10-22T23:31:31.837Z,90319.78
2022-10-22T23:33:59.422Z,90326.91
2022-10-22T23:36:27.297Z,90330.19
2022-10-22T23:38:55.016Z,90331.75
2022-10-22T23:41:22.331Z,90332.72
2022-10-22T23:43:50.406Z,90321.72
2022-10-22T23:46:17.665Z,90333.19
2022-10-22T23:48:44.806Z,90324.19
2022-10-22T23:51:14.120Z,90329.31
2022-10-22T23:53:42.256Z,90322.31
2022-10-22T23:56:13.711Z,90320.44
2022-10-22T23:58:40.668Z,90329.13
